Time;durP1;ratioP1;P1;durP2;ratioP2;P2;SDS_P1;SDS_P2;PMS_P1;PMS_P2;Temp;Humidity;BMP_temperature;BMP_pressure;BME280_temperature;BME280_humidity;BME280_pressure;Samples;Min_cycle;Max_cycle;Signal;HPM_P1;HPM_P2
2023/08/02 00:02:04;;;;;;;5.07;1.87;;;17.10;99.90;;;;;;5027815;28;20817;-82
2023/08/02 00:04:31;;;;;;;2.27;1.90;;;17.10;99.90;;;;;;5027765;28;20291;-81
2023/08/02 00:07:00;;;;;;;4.47;1.93;;;17.10;99.90;;;;;;5027667;28;20244;-81
2023/08/02 00:09:27;;;;;;;2.03;1.60;;;17.00;99.90;;;;;;5027786;28;20274;-81
2023/08/02 00:11:54;;;;;;;5.00;2.47;;;17.10;99.90;;;;;;5027776;28;20209;-81
2023/08/02 00:14:21;;;;;;;1.90;1.80;;;17.00;99.90;;;;;;5027889;28;20242;-82
2023/08/02 00:16:48;;;;;;;3.23;1.90;;;17.10;99.90;;;;;;5027486;28;20207;-82
2023/08/02 00:19:15;;;;;;;2.10;1.90;;;17.00;99.90;;;;;;5027665;28;20271;-82
2023/08/02 00:21:42;;;;;;;2.00;1.73;;;17.00;99.90;;;;;;5028058;28;20295;-82
2023/08/02 00:24:11;;;;;;;3.57;2.27;;;17.00;99.90;;;;;;5027854;28;20243;-82
2023/08/02 00:26:36;;;;;;;4.30;2.10;;;17.00;99.90;;;;;;5027775;28;20208;-81
2023/08/02 00:29:04;;;;;;;1.93;1.70;;;16.90;99.90;;;;;;5027250;28;20259;-82
2023/08/02 00:31:30;;;;;;;2.63;1.70;;;16.90;99.90;;;;;;5027790;28;20208;-82
2023/08/02 00:33:57;;;;;;;3.30;2.10;;;16.90;99.90;;;;;;5026915;28;20296;-81
2023/08/02 00:36:24;;;;;;;2.57;1.63;;;16.90;99.90;;;;;;5027126;28;20236;-79
2023/08/02 00:38:51;;;;;;;2.37;1.73;;;16.90;99.90;;;;;;5026715;28;20299;-79
2023/08/02 00:41:19;;;;;;;2.13;1.83;;;16.80;99.90;;;;;;5026754;28;20578;-79
2023/08/02 00:43:47;;;;;;;1.80;1.70;;;16.90;99.90;;;;;;5027139;28;20239;-79
2023/08/02 00:46:18;;;;;;;4.03;1.70;;;16.80;99.90;;;;;;5026625;28;20276;-81
2023/08/02 00:48:46;;;;;;;3.60;1.97;;;16.80;99.90;;;;;;5027130;28;20248;-81
2023/08/02 00:51:15;;;;;;;3.77;1.60;;;16.90;99.90;;;;;;5027019;28;20220;-80
2023/08/02 00:53:42;;;;;;;3.93;1.80;;;16.90;99.90;;;;;;5026524;28;20208;-81
2023/08/02 00:56:10;;;;;;;3.90;1.63;;;16.90;99.90;;;;;;5026894;28;20302;-79
2023/08/02 00:58:39;;;;;;;4.77;1.73;;;16.90;99.90;;;;;;5037629;28;20626;-79
2023/08/02 01:01:07;;;;;;;4.50;1.70;;;16.90;99.90;;;;;;5026378;28;20682;-79
2023/08/02 01:03:35;;;;;;;3.47;1.73;;;16.90;99.90;;;;;;5026494;28;20236;-77
2023/08/02 01:06:12;;;;;;;3.60;1.70;;;16.90;99.90;;;;;;5026258;28;20296;-79
2023/08/02 01:08:44;;;;;;;2.73;1.70;;;16.90;99.90;;;;;;5025848;28;20208;-79
2023/08/02 01:11:17;;;;;;;4.73;2.00;;;16.90;99.90;;;;;;5025841;28;20197;-79
2023/08/02 01:13:50;;;;;;;3.47;1.77;;;16.90;99.90;;;;;;5026231;28;20191;-79
2023/08/02 01:16:19;;;;;;;3.00;1.80;;;16.90;99.90;;;;;;5026211;28;20255;-79
2023/08/02 01:18:46;;;;;;;2.37;1.83;;;16.90;99.90;;;;;;5026202;28;20224;-80
2023/08/02 01:21:14;;;;;;;2.00;1.77;;;17.00;99.90;;;;;;5026688;28;20217;-79
2023/08/02 01:23:41;;;;;;;2.67;1.80;;;16.90;99.90;;;;;;5026135;28;20427;-78
2023/08/02 01:26:08;;;;;;;3.73;1.63;;;16.90;99.90;;;;;;5025961;28;20316;-81
2023/08/02 01:28:39;;;;;;;4.13;1.77;;;16.90;99.90;;;;;;5025905;28;20291;-79
2023/08/02 01:31:06;;;;;;;4.47;1.97;;;16.90;99.90;;;;;;5026509;28;20496;-79
2023/08/02 01:33:44;;;;;;;3.60;1.90;;;16.90;99.90;;;;;;5026307;28;20213;-78
2023/08/02 01:36:11;;;;;;;2.70;1.87;;;16.90;99.90;;;;;;5026259;28;20260;-78
2023/08/02 01:38:39;;;;;;;1.83;1.50;;;16.90;99.90;;;;;;5025567;28;20204;-79
2023/08/02 01:41:06;;;;;;;4.30;1.93;;;16.90;99.90;;;;;;5025541;28;20300;-79
2023/08/02 01:43:33;;;;;;;2.87;1.67;;;16.90;99.90;;;;;;5026580;28;20660;-79
2023/08/02 01:45:59;;;;;;;2.87;2.07;;;16.90;99.90;;;;;;5025909;28;20276;-82
2023/08/02 01:48:26;;;;;;;4.00;2.07;;;16.90;99.90;;;;;;5026303;28;20240;-81
2023/08/02 01:50:54;;;;;;;2.10;1.90;;;16.90;99.90;;;;;;5025643;28;20207;-81
2023/08/02 01:53:20;;;;;;;3.33;2.40;;;16.90;99.90;;;;;;5025439;28;20217;-78
2023/08/02 01:55:49;;;;;;;4.33;1.90;;;17.00;99.90;;;;;;5025601;28;20239;-78
2023/08/02 01:58:16;;;;;;;3.97;1.97;;;16.90;99.90;;;;;;5025716;28;20303;-79
2023/08/02 02:00:43;;;;;;;3.50;1.80;;;16.90;99.90;;;;;;5025524;28;20589;-79
2023/08/02 02:03:09;;;;;;;3.13;1.67;;;16.90;99.90;;;;;;5025339;28;20276;-79
2023/08/02 02:05:36;;;;;;;3.90;2.07;;;16.90;99.90;;;;;;5012402;28;20799;-81
2023/08/02 02:08:03;;;;;;;2.63;1.70;;;16.80;99.90;;;;;;5005777;28;20850;-80
2023/08/02 02:10:30;;;;;;;3.80;1.93;;;16.80;99.90;;;;;;5006025;28;20300;-81
2023/08/02 02:12:58;;;;;;;2.40;2.00;;;16.80;99.90;;;;;;5012872;28;20312;-82
2023/08/02 02:15:25;;;;;;;2.60;1.90;;;16.80;99.90;;;;;;5025879;28;20295;-82
2023/08/02 02:17:52;;;;;;;4.63;2.27;;;16.70;99.90;;;;;;5025116;28;20240;-79
2023/08/02 02:20:19;;;;;;;3.53;2.00;;;16.70;99.90;;;;;;5025648;28;20256;-81
2023/08/02 02:22:46;;;;;;;3.13;2.10;;;16.70;99.90;;;;;;5024392;28;20629;-79
2023/08/02 02:25:13;;;;;;;2.53;1.90;;;16.70;99.90;;;;;;5009958;28;20232;-80
2023/08/02 02:27:40;;;;;;;6.83;2.10;;;16.70;99.90;;;;;;5025735;28;20296;-82
2023/08/02 02:30:09;;;;;;;2.80;2.20;;;16.70;99.90;;;;;;5013709;28;20283;-80
2023/08/02 02:32:36;;;;;;;5.17;2.00;;;16.70;99.90;;;;;;5024231;28;20211;-79
2023/08/02 02:35:04;;;;;;;1.80;1.70;;;16.70;99.90;;;;;;5024429;28;20219;-80
2023/08/02 02:37:31;;;;;;;5.33;2.23;;;16.80;99.90;;;;;;5024040;28;20291;-81
2023/08/02 02:39:58;;;;;;;4.63;2.03;;;16.70;99.90;;;;;;5023560;28;20205;-81
2023/08/02 02:42:25;;;;;;;3.10;2.00;;;16.70;99.90;;;;;;5026970;28;20208;-81
2023/08/02 02:44:52;;;;;;;2.33;2.13;;;16.70;99.90;;;;;;5027488;28;21016;-81
2023/08/02 02:47:20;;;;;;;2.13;1.90;;;16.60;99.90;;;;;;5027793;28;20425;-80
2023/08/02 02:49:47;;;;;;;4.33;2.10;;;16.70;99.90;;;;;;5027601;28;20744;-81
2023/08/02 02:52:14;;;;;;;3.87;1.97;;;16.70;99.90;;;;;;5027404;28;20248;-80
2023/08/02 02:54:40;;;;;;;1.97;1.77;;;16.60;99.90;;;;;;5027278;28;20416;-80
2023/08/02 02:57:09;;;;;;;2.87;2.10;;;16.60;99.90;;;;;;5027125;28;20318;-80
2023/08/02 02:59:36;;;;;;;2.90;1.97;;;16.50;99.90;;;;;;5027365;28;20208;-80
2023/08/02 03:02:03;;;;;;;2.60;2.30;;;16.50;99.90;;;;;;5027150;28;20227;-80
2023/08/02 03:04:32;;;;;;;3.13;2.17;;;16.50;99.90;;;;;;5026855;28;20228;-79
2023/08/02 03:06:59;;;;;;;2.27;2.00;;;16.50;99.90;;;;;;5027038;28;20240;-80
2023/08/02 03:09:26;;;;;;;2.23;2.07;;;16.40;99.90;;;;;;5025469;28;21071;-81
2023/08/02 03:11:53;;;;;;;3.97;2.20;;;16.40;99.90;;;;;;5028130;28;20679;-81
2023/08/02 03:14:20;;;;;;;6.03;2.10;;;16.40;99.90;;;;;;5027895;28;20307;-81
2023/08/02 03:16:47;;;;;;;3.67;2.10;;;16.40;99.90;;;;;;5027632;28;20291;-81
2023/08/02 03:19:13;;;;;;;2.70;2.30;;;16.40;99.90;;;;;;5027854;28;20235;-80
2023/08/02 03:21:44;;;;;;;2.43;2.10;;;16.40;99.90;;;;;;5027691;28;20258;-81
2023/08/02 03:24:12;;;;;;;4.70;2.30;;;16.40;99.90;;;;;;5027510;28;20558;-81
2023/08/02 03:26:39;;;;;;;4.57;2.03;;;16.40;99.90;;;;;;5028374;28;20266;-80
2023/08/02 03:29:05;;;;;;;6.43;2.30;;;16.40;99.90;;;;;;5028568;28;20215;-81
2023/08/02 03:31:32;;;;;;;2.50;2.10;;;16.40;99.90;;;;;;5028155;28;20259;-80
2023/08/02 03:33:59;;;;;;;3.27;2.10;;;16.30;99.90;;;;;;5028225;28;20663;-80
2023/08/02 03:36:26;;;;;;;3.57;2.30;;;16.40;99.90;;;;;;5028237;28;20336;-81
2023/08/02 03:38:54;;;;;;;3.03;1.93;;;16.40;99.90;;;;;;5028221;28;20216;-81
2023/08/02 03:41:21;;;;;;;2.03;1.83;;;16.40;99.90;;;;;;5028321;28;20624;-80
2023/08/02 03:43:48;;;;;;;2.30;2.10;;;16.40;99.90;;;;;;5028069;28;20225;-80
2023/08/02 03:46:15;;;;;;;4.03;2.20;;;16.40;99.90;;;;;;5028263;28;20783;-81
2023/08/02 03:48:42;;;;;;;2.40;2.20;;;16.40;99.90;;;;;;5027895;28;20580;-80
2023/08/02 03:51:08;;;;;;;2.20;2.00;;;16.40;99.90;;;;;;5027940;28;20300;-80
2023/08/02 03:53:35;;;;;;;5.33;2.30;;;16.40;99.90;;;;;;5027274;28;20200;-80
2023/08/02 03:56:04;;;;;;;2.60;2.33;;;16.40;99.90;;;;;;5027881;28;20295;-80
2023/08/02 03:58:31;;;;;;;3.03;2.13;;;16.50;99.90;;;;;;5027598;28;20219;-80
2023/08/02 04:00:57;;;;;;;3.03;2.40;;;16.50;99.90;;;;;;5027841;28;20300;-81
2023/08/02 04:03:24;;;;;;;5.13;2.40;;;16.50;99.90;;;;;;5027817;28;20367;-80
2023/08/02 04:05:51;;;;;;;2.77;2.30;;;16.60;99.90;;;;;;5027678;28;20212;-80
2023/08/02 04:08:18;;;;;;;2.40;2.03;;;16.60;99.90;;;;;;5027159;28;20309;-80
2023/08/02 04:10:45;;;;;;;5.67;2.50;;;16.70;99.90;;;;;;5027442;28;20304;-80
2023/08/02 04:13:13;;;;;;;6.17;2.43;;;16.60;99.90;;;;;;5027442;28;20557;-80
2023/08/02 04:15:40;;;;;;;3.20;2.50;;;16.70;99.90;;;;;;5027200;28;20315;-80
2023/08/02 04:18:07;;;;;;;2.87;2.57;;;16.70;99.90;;;;;;5027576;28;20669;-81
2023/08/02 04:20:38;;;;;;;4.00;2.60;;;16.70;99.90;;;;;;5041654;28;20302;-80
2023/08/02 04:23:05;;;;;;;4.93;2.93;;;16.60;99.90;;;;;;5046923;28;20218;-80
2023/08/02 04:25:32;;;;;;;2.87;2.50;;;16.60;99.90;;;;;;5047157;28;20720;-81
2023/08/02 04:27:58;;;;;;;3.27;2.77;;;16.60;99.90;;;;;;5047257;28;20296;-80
2023/08/02 04:30:27;;;;;;;5.23;2.50;;;16.60;99.90;;;;;;5046963;28;20208;-80
2023/08/02 04:32:55;;;;;;;3.00;2.50;;;16.70;99.90;;;;;;5046739;28;20208;-81
2023/08/02 04:35:22;;;;;;;2.83;2.63;;;16.70;99.90;;;;;;5046690;28;20724;-80
2023/08/02 04:37:49;;;;;;;4.23;2.50;;;16.70;99.90;;;;;;5046158;28;20698;-80
2023/08/02 04:40:16;;;;;;;4.70;2.90;;;16.60;99.90;;;;;;5046693;28;20298;-80
2023/08/02 04:42:43;;;;;;;3.27;2.63;;;16.70;99.90;;;;;;5035396;28;20262;-81
2023/08/02 04:45:10;;;;;;;2.90;2.50;;;16.60;99.90;;;;;;5026673;28;20300;-81
2023/08/02 04:47:39;;;;;;;2.73;2.50;;;16.60;99.90;;;;;;5026153;28;20323;-80
2023/08/02 04:50:06;;;;;;;7.00;2.70;;;16.60;99.90;;;;;;5006692;28;20300;-80
2023/08/02 04:52:33;;;;;;;4.00;2.70;;;16.60;99.90;;;;;;5006815;28;20213;-80
2023/08/02 04:55:01;;;;;;;3.23;2.40;;;16.60;99.90;;;;;;5025275;28;20209;-80
2023/08/02 04:57:27;;;;;;;3.90;2.60;;;16.60;99.90;;;;;;5026136;28;20990;-80
2023/08/02 04:59:54;;;;;;;2.80;2.60;;;16.60;99.90;;;;;;5026075;28;21008;-79
2023/08/02 05:02:25;;;;;;;3.03;2.73;;;16.60;99.90;;;;;;5025913;28;20209;-81
2023/08/02 05:04:54;;;;;;;3.70;2.43;;;16.60;99.90;;;;;;5025484;28;20629;-81
2023/08/02 05:07:21;;;;;;;4.30;2.50;;;16.60;99.90;;;;;;5025480;28;20303;-80
2023/08/02 05:09:47;;;;;;;2.50;2.30;;;16.60;99.90;;;;;;5026246;28;20205;-80
2023/08/02 05:12:14;;;;;;;4.37;2.60;;;16.70;99.90;;;;;;5026450;28;20585;-80
2023/08/02 05:14:41;;;;;;;3.50;2.37;;;16.60;99.90;;;;;;5026426;28;20639;-80
2023/08/02 05:17:08;;;;;;;4.13;2.63;;;16.60;99.90;;;;;;5026350;28;20258;-80
2023/08/02 05:19:35;;;;;;;8.50;2.80;;;16.70;99.90;;;;;;5026332;28;20291;-80
2023/08/02 05:22:04;;;;;;;4.33;2.50;;;16.70;99.90;;;;;;5025960;28;20211;-80
2023/08/02 05:24:30;;;;;;;3.57;2.23;;;16.80;99.90;;;;;;5026024;28;20679;-81
2023/08/02 05:26:57;;;;;;;3.27;2.50;;;16.80;99.90;;;;;;5026021;28;20931;-80
2023/08/02 05:29:24;;;;;;;4.60;2.43;;;16.90;99.90;;;;;;5026239;28;20205;-81
2023/08/02 05:31:51;;;;;;;5.87;2.40;;;16.90;99.90;;;;;;5025569;28;20212;-80
2023/08/02 05:34:18;;;;;;;5.37;2.60;;;16.90;99.90;;;;;;5025753;28;20295;-80
2023/08/02 05:36:45;;;;;;;3.03;2.47;;;16.80;99.90;;;;;;5025774;28;20209;-80
2023/08/02 05:39:13;;;;;;;4.40;2.23;;;17.00;99.90;;;;;;5025166;28;20212;-80
2023/08/02 05:41:40;;;;;;;4.00;2.20;;;17.10;99.90;;;;;;5025658;28;20307;-80
2023/08/02 05:44:07;;;;;;;3.83;2.70;;;17.10;99.90;;;;;;5025626;28;20239;-80
2023/08/02 05:46:34;;;;;;;4.33;2.10;;;17.00;99.90;;;;;;5025606;28;20287;-80
2023/08/02 05:49:00;;;;;;;5.07;2.30;;;17.10;99.90;;;;;;5024584;28;20690;-80
2023/08/02 05:51:27;;;;;;;3.90;2.30;;;17.00;99.90;;;;;;5045225;28;20206;-81
2023/08/02 05:53:54;;;;;;;3.10;2.50;;;17.10;99.90;;;;;;5045016;28;20663;-80
2023/08/02 05:56:22;;;;;;;2.40;2.20;;;17.20;99.90;;;;;;5045453;28;20218;-80
2023/08/02 05:58:49;;;;;;;3.03;2.73;;;17.20;99.90;;;;;;5031174;28;20358;-80
2023/08/02 06:01:16;;;;;;;3.20;2.30;;;17.20;99.90;;;;;;5025559;28;20681;-80
2023/08/02 06:03:43;;;;;;;2.63;2.43;;;17.30;99.90;;;;;;5025360;28;20636;-80
2023/08/02 06:06:10;;;;;;;3.10;2.10;;;17.20;99.90;;;;;;5025246;28;20243;-80
2023/08/02 06:08:37;;;;;;;5.20;2.77;;;17.30;99.90;;;;;;5024977;28;20328;-81
2023/08/02 06:11:04;;;;;;;2.87;2.30;;;17.30;99.90;;;;;;5025665;28;20623;-80
2023/08/02 06:13:33;;;;;;;2.37;2.00;;;17.30;99.90;;;;;;5025409;28;20263;-80
2023/08/02 06:16:00;;;;;;;2.27;2.03;;;17.30;99.90;;;;;;5027680;28;20290;-80
2023/08/02 06:18:26;;;;;;;3.70;1.90;;;17.30;99.90;;;;;;5029257;28;20949;-80
2023/08/02 06:20:53;;;;;;;3.57;2.20;;;17.30;99.90;;;;;;5029214;28;20299;-81
2023/08/02 06:23:20;;;;;;;2.20;2.00;;;17.40;99.90;;;;;;5029035;28;20212;-80
2023/08/02 06:25:47;;;;;;;3.00;2.10;;;17.30;99.90;;;;;;5029162;28;20232;-80
2023/08/02 06:28:14;;;;;;;3.60;2.27;;;17.40;99.90;;;;;;5029513;28;20218;-80
2023/08/02 06:30:43;;;;;;;2.43;2.03;;;17.40;99.90;;;;;;5029140;28;20207;-81
2023/08/02 06:33:09;;;;;;;3.63;2.17;;;17.40;99.90;;;;;;5029390;28;20219;-80
2023/08/02 06:35:36;;;;;;;4.27;2.30;;;17.50;99.90;;;;;;5029170;28;20200;-80
2023/08/02 06:38:03;;;;;;;2.43;2.10;;;17.50;99.90;;;;;;5032552;28;20550;-80
2023/08/02 06:40:30;;;;;;;5.00;2.30;;;17.50;99.90;;;;;;5049222;28;20204;-80
2023/08/02 06:42:57;;;;;;;4.70;2.37;;;17.60;99.90;;;;;;5048806;28;20208;-80
2023/08/02 06:45:24;;;;;;;2.53;1.87;;;17.70;99.90;;;;;;5047570;28;20246;-80
2023/08/02 06:47:52;;;;;;;2.37;1.87;;;17.70;99.90;;;;;;5028474;28;20327;-80
2023/08/02 06:50:19;;;;;;;3.23;2.00;;;17.80;99.90;;;;;;5028807;28;20208;-80
2023/08/02 06:52:46;;;;;;;2.50;1.77;;;17.80;99.90;;;;;;5028561;28;20279;-80
2023/08/02 06:55:13;;;;;;;2.17;1.87;;;17.80;99.90;;;;;;5028648;28;20221;-80
2023/08/02 06:57:40;;;;;;;3.30;2.07;;;17.90;99.90;;;;;;5028763;28;20275;-81
2023/08/02 07:00:08;;;;;;;3.07;2.10;;;17.90;99.90;;;;;;5029219;28;20215;-80
2023/08/02 07:02:35;;;;;;;3.77;2.20;;;17.90;99.90;;;;;;5028871;28;20244;-80
2023/08/02 07:05:03;;;;;;;8.07;2.10;;;18.00;99.90;;;;;;5028653;28;20330;-81
2023/08/02 07:07:30;;;;;;;2.90;2.20;;;18.00;99.90;;;;;;5028905;28;20367;-80
2023/08/02 07:09:57;;;;;;;2.33;1.87;;;18.10;99.90;;;;;;5028616;28;20208;-79
2023/08/02 07:12:24;;;;;;;5.83;1.70;;;18.10;99.90;;;;;;5028552;28;20646;-80
2023/08/02 07:14:51;;;;;;;4.93;1.70;;;18.10;99.90;;;;;;5028242;28;20331;-80
2023/08/02 07:17:19;;;;;;;4.23;1.87;;;18.20;99.90;;;;;;5028728;28;20236;-80
2023/08/02 07:19:46;;;;;;;5.30;1.90;;;18.30;99.90;;;;;;5027706;28;20259;-80
2023/08/02 07:22:17;;;;;;;1.93;1.63;;;18.40;99.90;;;;;;5028396;28;20240;-80
2023/08/02 07:24:45;;;;;;;2.40;1.97;;;18.40;99.90;;;;;;5027773;28;20197;-80
2023/08/02 07:27:11;;;;;;;2.23;1.90;;;18.50;99.90;;;;;;5027513;28;20298;-81
2023/08/02 07:29:38;;;;;;;1.77;1.67;;;18.60;99.90;;;;;;5027790;28;20208;-80
2023/08/02 07:32:06;;;;;;;2.20;1.80;;;18.70;99.90;;;;;;5027442;28;20248;-80
2023/08/02 07:34:34;;;;;;;2.77;1.57;;;18.70;99.90;;;;;;5027943;28;20302;-81
2023/08/02 07:37:01;;;;;;;2.63;1.90;;;18.70;99.90;;;;;;5027913;28;20294;-81
2023/08/02 07:39:29;;;;;;;2.70;2.10;;;18.80;99.90;;;;;;5012625;28;20236;-80
2023/08/02 07:41:56;;;;;;;4.20;2.00;;;18.90;99.90;;;;;;5012176;28;20244;-80
2023/08/02 07:44:23;;;;;;;2.17;1.97;;;18.90;99.90;;;;;;5027658;28;20264;-81
2023/08/02 07:46:51;;;;;;;2.97;1.50;;;19.00;99.90;;;;;;5026760;28;20254;-80
2023/08/02 07:49:18;;;;;;;4.27;2.00;;;19.00;99.90;;;;;;5026977;28;20671;-80
2023/08/02 07:51:45;;;;;;;3.83;1.70;;;19.00;99.90;;;;;;5027106;28;20299;-80
2023/08/02 07:54:11;;;;;;;2.43;1.60;;;19.00;99.90;;;;;;5027078;28;20205;-80
2023/08/02 07:56:39;;;;;;;1.87;1.43;;;18.90;99.90;;;;;;5027204;28;20217;-80
2023/08/02 07:59:06;;;;;;;2.80;1.40;;;19.00;99.90;;;;;;5027298;28;20236;-80
2023/08/02 08:01:33;;;;;;;2.53;1.60;;;19.00;99.90;;;;;;5027191;28;20307;-80
2023/08/02 08:04:00;;;;;;;1.97;1.30;;;19.10;99.90;;;;;;5027414;28;20247;-80
2023/08/02 08:06:27;;;;;;;1.93;1.23;;;19.10;99.90;;;;;;5026889;28;20698;-80
2023/08/02 08:08:54;;;;;;;3.97;1.80;;;19.30;99.90;;;;;;5026523;28;20717;-80
2023/08/02 08:11:21;;;;;;;2.10;1.60;;;19.40;99.90;;;;;;5027527;28;20303;-80
2023/08/02 08:13:51;;;;;;;4.67;1.60;;;19.50;99.90;;;;;;5026926;28;20328;-80
2023/08/02 08:16:18;;;;;;;4.27;1.83;;;19.60;99.90;;;;;;5027158;28;20963;-81
2023/08/02 08:18:48;;;;;;;3.13;1.50;;;19.60;99.90;;;;;;5026839;28;20255;-81
2023/08/02 08:21:15;;;;;;;2.40;1.70;;;19.60;99.90;;;;;;5026902;28;20741;-80
2023/08/02 08:23:42;;;;;;;2.07;1.50;;;19.60;99.90;;;;;;5026566;28;20213;-80
2023/08/02 08:26:11;;;;;;;3.47;1.63;;;19.70;99.90;;;;;;5026139;28;21019;-80
2023/08/02 08:28:38;;;;;;;2.27;1.23;;;19.70;99.90;;;;;;5026731;28;20286;-80
2023/08/02 08:31:07;;;;;;;1.90;1.20;;;19.70;99.90;;;;;;5026186;28;20543;-79
2023/08/02 08:33:34;;;;;;;1.50;1.00;;;19.80;99.90;;;;;;5027032;28;20295;-80
2023/08/02 08:36:01;;;;;;;2.47;1.40;;;19.80;99.90;;;;;;5043959;28;20585;-80
2023/08/02 08:38:28;;;;;;;1.40;1.30;;;19.80;99.90;;;;;;5038217;28;20216;-80
2023/08/02 08:40:56;;;;;;;3.00;1.43;;;19.80;99.90;;;;;;5026000;28;20217;-82
2023/08/02 08:43:26;;;;;;;3.13;1.53;;;19.80;99.90;;;;;;5026172;28;20328;-80
2023/08/02 08:45:54;;;;;;;1.60;1.30;;;19.90;99.90;;;;;;5025996;28;20331;-80
2023/08/02 08:48:23;;;;;;;3.20;1.50;;;19.90;99.90;;;;;;5026406;28;20201;-80
2023/08/02 08:50:54;;;;;;;2.13;1.40;;;20.00;99.90;;;;;;5026463;28;20213;-80
2023/08/02 08:53:26;;;;;;;4.17;1.50;;;19.90;99.90;;;;;;5026211;28;20193;-80
2023/08/02 08:55:54;;;;;;;2.47;1.23;;;20.00;99.90;;;;;;5026463;28;20227;-79
2023/08/02 08:58:21;;;;;;;2.37;1.37;;;20.20;99.90;;;;;;5026193;28;20216;-80
2023/08/02 09:00:49;;;;;;;2.33;1.50;;;20.20;99.90;;;;;;5025866;28;21034;-80
2023/08/02 09:03:16;;;;;;;1.40;1.30;;;20.30;99.90;;;;;;5026114;28;20215;-80
2023/08/02 09:05:45;;;;;;;1.97;1.30;;;20.30;99.90;;;;;;5026250;28;20332;-80
2023/08/02 09:08:12;;;;;;;1.40;1.30;;;20.30;99.90;;;;;;5026200;28;20295;-80
2023/08/02 09:10:39;;;;;;;1.27;1.13;;;20.20;99.90;;;;;;5026214;28;20737;-80
2023/08/02 09:13:06;;;;;;;1.57;1.40;;;20.30;99.90;;;;;;5026163;28;20292;-81
2023/08/02 09:15:33;;;;;;;1.90;1.27;;;20.30;99.90;;;;;;5025870;28;20311;-80
2023/08/02 09:18:00;;;;;;;3.60;1.40;;;20.40;99.90;;;;;;5026051;28;20303;-80
2023/08/02 09:20:28;;;;;;;1.90;1.07;;;20.40;99.90;;;;;;5025854;28;20216;-80
2023/08/02 09:23:00;;;;;;;1.53;1.40;;;20.40;99.90;;;;;;5025726;28;20209;-80
2023/08/02 09:25:29;;;;;;;1.70;1.43;;;20.50;99.90;;;;;;5026173;28;20646;-80
2023/08/02 09:28:00;;;;;;;2.87;1.53;;;20.50;99.90;;;;;;5026202;28;20966;-80
2023/08/02 09:30:28;;;;;;;4.40;1.40;;;20.60;99.90;;;;;;5026262;28;20288;-80
2023/08/02 09:33:00;;;;;;;1.57;1.30;;;20.60;99.90;;;;;;5025692;28;20303;-79
2023/08/02 09:35:27;;;;;;;2.77;1.40;;;20.80;99.90;;;;;;5025172;28;21131;-80
2023/08/02 09:37:56;;;;;;;2.07;1.30;;;20.90;99.90;;;;;;5025136;28;20217;-80
2023/08/02 09:40:36;;;;;;;1.87;1.50;;;21.00;99.90;;;;;;5025688;28;20298;-80
2023/08/02 09:43:04;;;;;;;2.40;1.20;;;21.00;99.90;;;;;;5025396;28;20204;-80
2023/08/02 09:45:33;;;;;;;3.10;1.30;;;21.20;99.90;;;;;;5025389;28;20201;-80
2023/08/02 09:48:00;;;;;;;1.70;1.30;;;21.10;99.90;;;;;;5025497;28;20235;-80
2023/08/02 09:50:27;;;;;;;2.20;1.20;;;21.20;99.90;;;;;;5025097;28;20213;-80
2023/08/02 09:52:55;;;;;;;2.10;1.50;;;21.20;99.90;;;;;;5025307;28;20204;-80
2023/08/02 09:55:23;;;;;;;2.38;1.20;;;21.20;99.90;;;;;;5025554;28;20301;-80
2023/08/02 09:57:50;;;;;;;2.90;1.33;;;21.30;99.90;;;;;;5025298;28;20209;-81
2023/08/02 10:00:19;;;;;;;2.40;1.48;;;21.50;99.90;;;;;;5025448;28;20614;-80
2023/08/02 10:02:48;;;;;;;3.17;1.52;;;21.60;99.90;;;;;;5025467;28;20720;-79
2023/08/02 10:05:18;;;;;;;2.30;1.30;;;21.60;99.90;;;;;;5025272;28;20266;-80
2023/08/02 10:07:47;;;;;;;1.92;1.42;;;21.70;99.90;;;;;;5024952;28;20750;-80
2023/08/02 10:10:19;;;;;;;2.65;1.70;;;21.80;99.90;;;;;;5025253;28;20675;-80
2023/08/02 10:12:53;;;;;;;2.63;1.55;;;21.80;99.90;;;;;;5025482;28;20197;-79
2023/08/02 10:15:20;;;;;;;1.45;1.35;;;21.90;99.90;;;;;;5025374;28;20196;-80
2023/08/02 10:17:48;;;;;;;3.15;1.40;;;22.00;99.90;;;;;;5024902;28;20301;-80
2023/08/02 10:20:15;;;;;;;3.63;1.42;;;22.20;99.90;;;;;;5025658;28;20240;-79
2023/08/02 10:22:43;;;;;;;1.50;1.40;;;22.40;99.90;;;;;;5025171;28;20205;-80
2023/08/02 10:25:16;;;;;;;3.05;1.40;;;22.50;99.90;;;;;;5025260;28;21086;-80
2023/08/02 10:27:45;;;;;;;3.85;1.42;;;22.60;99.90;;;;;;5024822;28;20278;-80
2023/08/02 10:30:14;;;;;;;1.33;1.23;;;22.80;99.90;;;;;;5025349;28;20238;-79
2023/08/02 10:32:41;;;;;;;1.65;1.45;;;22.80;99.90;;;;;;5024813;28;20213;-80
2023/08/02 10:35:08;;;;;;;3.10;1.45;;;22.80;99.90;;;;;;5025036;28;20764;-80
2023/08/02 10:37:55;;;;;;;1.85;1.50;;;22.50;99.90;;;;;;5025194;28;20223;-80
2023/08/02 10:40:25;;;;;;;2.05;1.30;;;22.30;99.90;;;;;;5028578;28;20204;-80
2023/08/02 10:43:05;;;;;;;3.22;1.30;;;22.40;99.90;;;;;;5045019;28;20295;-80
2023/08/02 10:45:34;;;;;;;1.35;1.23;;;22.30;99.90;;;;;;5045006;28;20239;-80
2023/08/02 10:48:24;;;;;;;2.30;1.40;;;22.40;99.90;;;;;;5041753;28;20211;-80
2023/08/02 10:50:51;;;;;;;2.35;1.30;;;22.40;99.90;;;;;;5024727;28;20213;-79
2023/08/02 10:53:19;;;;;;;1.33;1.23;;;22.50;99.90;;;;;;5024890;28;20236;-79
2023/08/02 10:56:06;;;;;;;1.20;1.20;;;22.60;99.90;;;;;;5024643;28;20678;-80
2023/08/02 10:58:47;;;;;;;2.35;1.45;;;22.70;99.90;;;;;;5025079;28;20200;-80
2023/08/02 11:01:15;;;;;;;1.50;1.40;;;22.60;99.90;;;;;;5024265;28;20990;-80
2023/08/02 11:03:43;;;;;;;2.13;1.42;;;22.60;99.90;;;;;;5027928;28;20393;-79
2023/08/02 11:06:24;;;;;;;1.85;1.48;;;22.50;99.90;;;;;;5028262;28;20232;-80
2023/08/02 11:08:51;;;;;;;2.40;1.30;;;22.50;99.90;;;;;;5028067;28;20288;-80
2023/08/02 11:11:29;;;;;;;1.40;1.30;;;22.40;99.90;;;;;;5028519;28;20752;-80
2023/08/02 11:13:56;;;;;;;2.00;1.25;;;22.40;99.90;;;;;;5028211;28;20211;-80
2023/08/02 11:16:25;;;;;;;2.17;1.30;;;22.30;99.90;;;;;;5028425;28;20205;-80
2023/08/02 11:18:52;;;;;;;2.25;1.60;;;22.20;99.90;;;;;;5028296;28;20214;-79
2023/08/02 11:21:18;;;;;;;3.58;1.65;;;22.10;99.90;;;;;;5028577;28;20211;-80
2023/08/02 11:23:49;;;;;;;2.75;1.48;;;22.00;99.90;;;;;;5027986;28;20304;-80
2023/08/02 11:26:18;;;;;;;2.00;1.42;;;22.00;99.90;;;;;;5028325;28;20224;-80
2023/08/02 11:28:47;;;;;;;2.30;1.65;;;22.00;99.90;;;;;;5027733;28;20303;-80
2023/08/02 11:31:15;;;;;;;2.28;1.98;;;22.00;99.90;;;;;;5028547;28;20232;-80
2023/08/02 11:33:43;;;;;;;1.75;1.65;;;22.00;99.90;;;;;;5027856;28;20236;-80
2023/08/02 11:36:10;;;;;;;1.90;1.80;;;22.00;99.90;;;;;;5027853;28;20668;-80
2023/08/02 11:38:41;;;;;;;1.83;1.73;;;22.00;99.90;;;;;;5027799;28;20208;-80
2023/08/02 11:41:19;;;;;;;3.33;2.30;;;22.00;99.90;;;;;;5027595;28;20205;-80
2023/08/02 11:43:47;;;;;;;2.92;2.10;;;22.00;99.90;;;;;;5027965;28;20659;-80
2023/08/02 11:46:15;;;;;;;2.55;1.98;;;22.00;99.90;;;;;;5027430;28;20351;-80
2023/08/02 11:48:44;;;;;;;2.20;2.05;;;22.00;99.90;;;;;;5019436;28;20643;-80
2023/08/02 11:51:12;;;;;;;2.47;1.80;;;22.10;99.90;;;;;;5007830;28;20295;-80
2023/08/02 11:53:49;;;;;;;4.32;1.80;;;22.20;99.90;;;;;;5007723;28;20289;-80
2023/08/02 11:56:16;;;;;;;1.90;1.70;;;22.30;99.90;;;;;;5008083;28;20205;-80
2023/08/02 11:58:44;;;;;;;2.33;2.13;;;22.50;99.90;;;;;;5007696;28;20302;-80
2023/08/02 12:01:12;;;;;;;4.03;2.25;;;22.50;99.90;;;;;;5024979;28;20211;-81
2023/08/02 12:03:39;;;;;;;2.45;1.90;;;22.60;99.90;;;;;;5047347;28;20244;-80
2023/08/02 12:06:08;;;;;;;3.78;2.10;;;22.60;99.90;;;;;;5046977;28;20258;-80
2023/08/02 12:08:35;;;;;;;2.67;1.75;;;22.60;99.90;;;;;;5047311;28;20289;-80
2023/08/02 12:11:13;;;;;;;3.70;2.08;;;22.60;99.90;;;;;;5047086;28;20243;-80
2023/08/02 12:13:44;;;;;;;1.70;1.65;;;22.70;99.90;;;;;;5047329;28;20210;-79
2023/08/02 12:16:13;;;;;;;2.80;1.83;;;22.70;99.90;;;;;;5037721;28;20208;-79
2023/08/02 12:18:51;;;;;;;2.53;1.92;;;22.90;99.90;;;;;;5027412;28;20303;-79
2023/08/02 12:21:19;;;;;;;8.70;2.17;;;23.00;99.90;;;;;;5027454;28;20255;-81
2023/08/02 12:23:46;;;;;;;2.08;1.98;;;23.00;99.90;;;;;;5027440;28;21126;-80
2023/08/02 12:26:27;;;;;;;2.05;1.92;;;23.00;99.90;;;;;;5027619;28;20282;-81
2023/08/02 12:28:54;;;;;;;5.13;2.00;;;23.00;99.90;;;;;;5027128;28;20757;-81
2023/08/02 12:31:23;;;;;;;3.40;1.98;;;23.00;99.90;;;;;;5027289;28;20255;-80
2023/08/02 12:33:50;;;;;;;2.50;2.30;;;22.90;99.90;;;;;;5027316;28;20364;-80
2023/08/02 12:36:29;;;;;;;4.47;2.03;;;22.80;99.90;;;;;;5027383;28;20208;-81
2023/08/02 12:38:57;;;;;;;2.75;2.33;;;22.70;99.90;;;;;;5026854;28;20193;-80
2023/08/02 12:41:24;;;;;;;3.58;2.08;;;22.60;99.90;;;;;;5026970;28;20560;-80
2023/08/02 12:43:51;;;;;;;4.05;1.88;;;22.60;99.90;;;;;;5026498;28;20275;-81
2023/08/02 12:46:18;;;;;;;2.55;2.00;;;22.50;99.90;;;;;;5026672;28;20229;-80
2023/08/02 12:48:45;;;;;;;4.97;2.25;;;22.40;99.90;;;;;;5017997;28;20619;-80
2023/08/02 12:51:13;;;;;;;3.58;2.10;;;22.30;99.90;;;;;;5007460;28;20296;-80
2023/08/02 12:53:42;;;;;;;2.75;2.40;;;22.20;99.90;;;;;;5007581;28;20279;-80